Columbia Station, Ohio
Current Conditions -  °F | °C
As of 11:01 AM on Tuesday 21 Oct 2014 (Local Time) from KCLE Reporting Station
Light Rain Light Rain  
Wind Chill: 44°   Ceiling: 1300
Heat Index: 49°   Visibility: 6mi
Dew Point: 47°   Wind: 13mph
Humidity: 93%   Direction: 340°NNW
Pressure: 29.96"   Gusts: NA
Location:  41.31°N, 81.95°W
Report Text: KCLE 211501Z 34011KT 6SM -RA BR FEW007 BKN013 OVC021 09/08 A2996 RMK AO2 P0000 T00940083 $
Loading
Personal Weather Stations






























Interactive Weather Map
Tropical Storm Tracking
New forecast layout! Learn more

10-Day Weather Forecast

Advertisements
Track Severe Weather on mobile